Alpena, Arkansas
Current Conditions -  °F | °C
As of 5:53 AM on Thursday 18 Dec 2014 (Local Time) from KHRO Reporting Station
Haze Haze  
Wind Chill: 27°   Ceiling: 200
Heat Index: 33°   Visibility: 5mi
Dew Point: 33°   Wind: 7mph
Humidity: 100%   Direction: 120°ESE
Pressure: 30.16"   Gusts: NA
Location:  36.29°N, 93.29°W
Report Text: KHRO 181153Z AUTO 12006KT 5SM BR OVC002 01/01 A3016 RMK AO2 SLP224 60000 70052 T00060006 10006 20000 53001
Loading
Personal Weather Stations






























Interactive Weather Map New forecast layout! Learn more

10-Day Weather Forecast

Advertisements
Track Severe Weather on mobile